地図

経路データ

SID SEASON NUMBER BASIN SUBBASIN NAME ISO_TIME NATURE LAT LON WMO_WIND WMO_PRES WMO_AGENCY TRACK_TYPE DIST2LAND LANDFALL IFLAG USA_AGENCY USA_ATCF_ID USA_LAT USA_LON USA_RECORD USA_STATUS USA_WIND USA_PRES USA_SSHS USA_R34_NE USA_R34_SE USA_R34_SW USA_R34_NW USA_R50_NE USA_R50_SE USA_R50_SW USA_R50_NW USA_R64_NE USA_R64_SE USA_R64_SW USA_R64_NW USA_POCI USA_ROCI USA_RMW USA_EYE TOKYO_LAT TOKYO_LON TOKYO_GRADE TOKYO_WIND TOKYO_PRES TOKYO_R50_DIR TOKYO_R50_LONG TOKYO_R50_SHORT TOKYO_R30_DIR TOKYO_R30_LONG TOKYO_R30_SHORT TOKYO_LAND CMA_LAT CMA_LON CMA_CAT CMA_WIND CMA_PRES HKO_LAT HKO_LON HKO_CAT HKO_WIND HKO_PRES NEWDELHI_LAT NEWDELHI_LON NEWDELHI_GRADE NEWDELHI_WIND NEWDELHI_PRES NEWDELHI_CI NEWDELHI_DP NEWDELHI_POCI REUNION_LAT REUNION_LON REUNION_TYPE REUNION_WIND REUNION_PRES REUNION_TNUM REUNION_CI REUNION_RMW REUNION_R34_NE REUNION_R34_SE REUNION_R34_SW REUNION_R34_NW REUNION_R50_NE REUNION_R50_SE REUNION_R50_SW REUNION_R50_NW REUNION_R64_NE REUNION_R64_SE REUNION_R64_SW REUNION_R64_NW BOM_LAT BOM_LON BOM_TYPE BOM_WIND BOM_PRES BOM_TNUM BOM_CI BOM_RMW BOM_R34_NE BOM_R34_SE BOM_R34_SW BOM_R34_NW BOM_R50_NE BOM_R50_SE BOM_R50_SW BOM_R50_NW BOM_R64_NE BOM_R64_SE BOM_R64_SW BOM_R64_NW BOM_ROCI BOM_POCI BOM_EYE BOM_POS_METHOD BOM_PRES_METHOD NADI_LAT NADI_LON NADI_CAT NADI_WIND NADI_PRES WELLINGTON_LAT WELLINGTON_LON WELLINGTON_WIND WELLINGTON_PRES DS824_LAT DS824_LON DS824_STAGE DS824_WIND DS824_PRES TD9636_LAT TD9636_LON TD9636_STAGE TD9636_WIND TD9636_PRES TD9635_LAT TD9635_LON TD9635_WIND TD9635_PRES TD9635_ROCI NEUMANN_LAT NEUMANN_LON NEUMANN_CLASS NEUMANN_WIND NEUMANN_PRES MLC_LAT MLC_LON MLC_CLASS MLC_WIND MLC_PRES USA_GUST BOM_GUST BOM_GUST_PER REUNION_GUST REUNION_GUST_PER USA_SEAHGT USA_SEARAD_NE USA_SEARAD_SE USA_SEARAD_SW USA_SEARAD_NW STORM_SPEED STORM_DIR
1987209N12259 1987 49 EP MM GREG 1987-07-28 00:00:00 TS 11.8000 -101.000 25 hurdat_epa main 566 547 O_________O___ hurdat_epa EP071987 11.8000 -101.000 TD 25 -1 11.8000 -101.000 1 25 5 339
1987209N12259 1987 49 EP MM GREG 1987-07-28 03:00:00 TS 12.0450 -101.101 main 547 518 P_________P___ EP071987 12.0625 -101.102 TD 25 -1 11.9924 -101.095 1 26 5 338
1987209N12259 1987 49 EP MM GREG 1987-07-28 06:00:00 TS 12.2744 -101.198 25 hurdat_epa main 518 500 O_________P___ hurdat_epa EP071987 12.3000 -101.200 TD 25 -1 12.1978 -101.192 1 27 5 337
1987209N12259 1987 49 EP MM GREG 1987-07-28 09:00:00 TS 12.4823 -101.293 main 500 483 P_________P___ EP071987 12.5000 -101.293 TD 27 -1 12.4293 -101.293 1 28 5 335
1987209N12259 1987 49 EP MM GREG 1987-07-28 12:00:00 TS 12.7000 -101.400 30 hurdat_epa main 483 467 O_________O___ hurdat_epa EP071987 12.7000 -101.400 TD 30 -1 12.7000 -101.400 1 30 5 334
1987209N12259 1987 49 EP MM GREG 1987-07-28 15:00:00 TS 12.9440 -101.525 main 467 446 P_________P___ EP071987 12.9200 -101.528 TD 30 -1 13.0162 -101.519 1 30 6 332
1987209N12259 1987 49 EP MM GREG 1987-07-28 18:00:00 TS 13.2392 -101.693 30 hurdat_epa main 446 419 O_________P___ hurdat_epa EP071987 13.2000 -101.700 TD 30 -1 13.3568 -101.673 1 30 8 332
1987209N12259 1987 49 EP MM GREG 1987-07-28 21:00:00 TS 13.6122 -101.896 main 419 387 P_________P___ EP071987 13.5849 -101.898 TD 30 -1 13.6941 -101.891 1 30 9 327
1987209N12259 1987 49 EP MM GREG 1987-07-29 00:00:00 TS 14.0000 -102.200 30 hurdat_epa main 387 367 O_________O___ hurdat_epa EP071987 14.0000 -102.200 TD 30 -1 14.0000 -102.200 1 30 11 316
1987209N12259 1987 49 EP MM GREG 1987-07-29 03:00:00 TS 14.3670 -102.647 main 362 362 P_________P___ EP071987 14.4025 -102.655 TD 30 -1 14.2606 -102.623 1 32 12 304
1987209N12259 1987 49 EP MM GREG 1987-07-29 06:00:00 TS 14.6457 -103.184 30 hurdat_epa main 376 367 O_________P___ hurdat_epa EP071987 14.7000 -103.200 TD 30 -1 14.4828 -103.137 1 35 11 291
1987209N12259 1987 49 EP MM GREG 1987-07-29 09:00:00 TS 14.7620 -103.728 main 376 376 P_________P___ EP071987 14.7949 -103.735 TD 35 0 14.6636 -103.708 1 37 11 278
1987209N12259 1987 49 EP MM GREG 1987-07-29 12:00:00 TS 14.8000 -104.300 40 hurdat_epa main 398 398 O_________O___ hurdat_epa EP071987 14.8000 -104.300 TS 40 0 14.8000 -104.300 2 40 11 274
1987209N12259 1987 49 EP MM GREG 1987-07-29 15:00:00 TS 14.8495 -104.893 main 419 408 P_________P___ EP071987 14.8500 -104.900 TS 42 0 14.8483 -104.870 2 41 12 275
1987209N12259 1987 49 EP MM GREG 1987-07-29 18:00:00 TS 14.8906 -105.488 45 hurdat_epa main 436 436 O_________P___ hurdat_epa EP071987 14.9000 -105.500 TS 45 0 14.8624 -105.452 2 42 11 273
1987209N12259 1987 49 EP MM GREG 1987-07-29 21:00:00 TS 14.9137 -106.052 main 470 470 P_________P___ EP071987 14.9198 -106.058 TS 45 0 14.8952 -106.033 2 43 11 276
1987209N12259 1987 49 EP MM GREG 1987-07-30 00:00:00 TS 15.0000 -106.600 45 hurdat_epa main 495 495 O_________O___ hurdat_epa EP071987 15.0000 -106.600 TS 45 0 15.0000 -106.600 2 45 11 286
1987209N12259 1987 49 EP MM GREG 1987-07-30 03:00:00 TS 15.2105 -107.157 main 515 505 P_________P___ EP071987 15.1974 -107.158 TS 45 0 15.2497 -107.155 2 46 12 296
1987209N12259 1987 49 EP MM GREG 1987-07-30 06:00:00 TS 15.5187 -107.699 45 hurdat_epa main 515 511 O_________P___ hurdat_epa EP071987 15.5000 -107.700 TS 45 0 15.5747 -107.694 2 47 12 304
1987209N12259 1987 49 EP MM GREG 1987-07-30 09:00:00 TS 15.9037 -108.220 main 516 515 P_________P___ EP071987 15.8924 -108.222 TS 47 0 15.9373 -108.211 2 48 12 309
1987209N12259 1987 49 EP MM GREG 1987-07-30 12:00:00 TS 16.3000 -108.700 50 hurdat_epa main 523 522 O_________O___ hurdat_epa EP071987 16.3000 -108.700 TS 50 0 16.3000 -108.700 2 50 11 309
1987209N12259 1987 49 EP MM GREG 1987-07-30 15:00:00 TS 16.6148 -109.122 main 530 530 P_________P___ EP071987 16.6148 -109.108 TS 50 0 16.6149 -109.166 2 50 10 307
1987209N12259 1987 49 EP MM GREG 1987-07-30 18:00:00 TS 16.9055 -109.526 50 hurdat_epa main 542 542 O_________P___ hurdat_epa EP071987 16.9000 -109.500 TS 50 0 16.9220 -109.603 2 50 10 306
1987209N12259 1987 49 EP MM GREG 1987-07-30 21:00:00 TS 17.2101 -109.966 main 568 562 P_________P___ EP071987 17.2075 -109.950 TS 50 0 17.2181 -110.013 2 50 10 305
1987209N12259 1987 49 EP MM GREG 1987-07-31 00:00:00 TS 17.5000 -110.400 50 hurdat_epa main 586 586 O_________O___ hurdat_epa EP071987 17.5000 -110.400 TS 50 0 17.5000 -110.400 2 50 10 304
1987209N12259 1987 49 EP MM GREG 1987-07-31 03:00:00 TS 17.7561 -110.810 main 576 559 P_________P___ EP071987 17.7575 -110.823 TS 52 0 17.7522 -110.771 2 51 9 304
1987209N12259 1987 49 EP MM GREG 1987-07-31 06:00:00 TS 17.9982 -111.180 55 hurdat_epa main 562 545 O_________P___ hurdat_epa EP071987 18.0000 -111.200 TS 55 0 17.9927 -111.121 2 52 8 307
1987209N12259 1987 49 EP MM GREG 1987-07-31 09:00:00 TS 18.2410 -111.496 main 548 522 P_________P___ EP071987 18.2423 -111.508 TS 55 0 18.2369 -111.461 2 53 8 310
1987209N12259 1987 49 EP MM GREG 1987-07-31 12:00:00 TS 18.5000 -111.800 55 hurdat_epa main 526 507 O_________O___ hurdat_epa EP071987 18.5000 -111.800 TS 55 0 18.5000 -111.800 2 55 8 312
1987209N12259 1987 49 EP MM GREG 1987-07-31 15:00:00 TS 18.7854 -112.137 main 507 497 P_________P___ EP071987 18.7849 -112.135 TS 60 0 18.7868 -112.142 2 60 9 312
1987209N12259 1987 49 EP MM GREG 1987-07-31 18:00:00 TS 19.1000 -112.500 65 hurdat_epa main 497 487 O_________O___ hurdat_epa EP071987 19.1000 -112.500 HU 65 1 19.1000 -112.500 3 65 10 313
1987209N12259 1987 49 EP MM GREG 1987-07-31 21:00:00 TS 19.4490 -112.878 main 493 480 P_________P___ EP071987 19.4499 -112.878 HU 67 1 19.4465 -112.880 3 67 10 313
1987209N12259 1987 49 EP MM GREG 1987-08-01 00:00:00 TS 19.8000 -113.300 70 hurdat_epa main 486 486 O_________O___ hurdat_epa EP071987 19.8000 -113.300 HU 70 1 19.8000 -113.300 4 70 11 308
1987209N12259 1987 49 EP MM GREG 1987-08-01 03:00:00 TS 20.1172 -113.774 main 502 495 P_________P___ EP071987 20.1074 -113.778 HU 70 1 20.1466 -113.762 4 68 11 304
1987209N12259 1987 49 EP MM GREG 1987-08-01 06:00:00 TS 20.4186 -114.293 70 hurdat_epa main 524 516 O_________P___ hurdat_epa EP071987 20.4000 -114.300 HU 70 1 20.4745 -114.271 4 67 12 302
1987209N12259 1987 49 EP MM GREG 1987-08-01 09:00:00 TS 20.7330 -114.826 main 524 521 P_________P___ EP071987 20.7222 -114.827 HU 67 1 20.7652 -114.820 4 66 12 299
1987209N12259 1987 49 EP MM GREG 1987-08-01 12:00:00 TS 21.0000 -115.400 65 hurdat_epa main 534 534 O_________O___ hurdat_epa EP071987 21.0000 -115.400 HU 65 1 21.0000 -115.400 4 65 12 292
1987209N12259 1987 49 EP MM GREG 1987-08-01 15:00:00 TS 21.1821 -116.036 main 558 558 P_________P___ EP071987 21.1875 -116.043 HU 62 0 21.1659 -116.017 4 63 12 284
1987209N12259 1987 49 EP MM GREG 1987-08-01 18:00:00 TS 21.2939 -116.690 60 hurdat_epa main 603 603 O_________P___ hurdat_epa EP071987 21.3000 -116.700 TS 60 0 21.2755 -116.659 4 62 12 279
1987209N12259 1987 49 EP MM GREG 1987-08-01 21:00:00 TS 21.3604 -117.310 main 645 645 P_________P___ EP071987 21.3648 -117.315 TS 60 0 21.3472 -117.295 4 61 11 275
1987209N12259 1987 49 EP MM GREG 1987-08-02 00:00:00 TS 21.4000 -117.900 60 hurdat_epa main 695 695 O_________O___ hurdat_epa EP071987 21.4000 -117.900 TS 60 0 21.4000 -117.900 2 60 11 275
1987209N12259 1987 49 EP MM GREG 1987-08-02 03:00:00 TS 21.4553 -118.463 main 741 741 P_________P___ EP071987 21.4499 -118.473 TS 57 0 21.4715 -118.436 2 56 10 276
1987209N12259 1987 49 EP MM GREG 1987-08-02 06:00:00 TS 21.5072 -118.984 55 hurdat_epa main 786 786 O_________P___ hurdat_epa EP071987 21.5000 -119.000 TS 55 0 21.5287 -118.938 2 52 9 277
1987209N12259 1987 49 EP MM GREG 1987-08-02 09:00:00 TS 21.5608 -119.448 main 804 804 P_________P___ EP071987 21.5572 -119.457 TS 50 0 21.5716 -119.420 2 48 9 276
1987209N12259 1987 49 EP MM GREG 1987-08-02 12:00:00 TS 21.6000 -119.900 45 hurdat_epa main 837 837 O_________O___ hurdat_epa EP071987 21.6000 -119.900 TS 45 0 21.6000 -119.900 2 45 9 273
1987209N12259 1987 49 EP MM GREG 1987-08-02 15:00:00 TS 21.6091 -120.399 main 871 871 P_________P___ EP071987 21.6074 -120.393 TS 37 0 21.6142 -120.416 2 41 9 270
1987209N12259 1987 49 EP MM GREG 1987-08-02 18:00:00 TS 21.6037 -120.908 30 hurdat_epa main 905 905 O_________P___ hurdat_epa EP071987 21.6000 -120.900 TD 30 -1 21.6149 -120.930 2 37 9 270
1987209N12259 1987 49 EP MM GREG 1987-08-02 21:00:00 TS 21.6020 -121.418 main 938 938 P_________P___ EP071987 21.6000 -121.415 TD 30 -1 21.6081 -121.429 2 33 9 270
1987209N12259 1987 49 EP MM GREG 1987-08-03 00:00:00 TS 21.6000 -121.900 30 hurdat_epa main 974 974 O_________O___ hurdat_epa EP071987 21.6000 -121.900 TD 30 -1 21.6000 -121.900 1 30 8 270
1987209N12259 1987 49 EP MM GREG 1987-08-03 03:00:00 TS 21.5998 -122.326 main 1003 1003 P_________P___ EP071987 21.5998 -122.315 TD 27 -1 21.5998 -122.360 1 28 8 270
1987209N12259 1987 49 EP MM GREG 1987-08-03 06:00:00 TS 21.5999 -122.722 25 hurdat_epa main 1033 1033 O_________P___ hurdat_epa EP071987 21.6000 -122.700 TD 25 -1 21.5998 -122.789 1 27 8 270
1987209N12259 1987 49 EP MM GREG 1987-08-03 09:00:00 TS 21.6000 -123.135 main 1064 1064 P_________P___ EP071987 21.6000 -123.122 TD 25 -1 21.5999 -123.172 1 26 7 270
1987209N12259 1987 49 EP MM GREG 1987-08-03 12:00:00 TS 21.6000 -123.500 25 hurdat_epa main 1095 1095 O_________O___ hurdat_epa EP071987 21.6000 -123.500 TD 25 -1 21.6000 -123.500 1 25 6 270
1987209N12259 1987 49 EP MM GREG 1987-08-03 15:00:00 TS 21.6000 -123.777 main 1119 1119 P_________P___ EP071987 21.6000 -123.780 TD 22 -1 21.6000 -123.767 1 22 5 270
1987209N12259 1987 49 EP MM GREG 1987-08-03 18:00:00 TS 21.6000 -124.000 20 hurdat_epa main 1135 O_________O___ hurdat_epa EP071987 21.6000 -124.000 TD 20 -1 21.6000 -124.000 1 20 4 270

IBTrACS Databaseについて

本データベースは、米国NOAAが公開する1842年以降の世界の熱帯低気圧のベストトラックデータアーカイブInternational Best Track Archive for Climate Stewardship (IBTrACS)を、ウェブで閲覧しやすい形式に変換したものです。

最終更新日:2021-12-06